Time;durP1;ratioP1;P1;durP2;ratioP2;P2;SDS_P1;SDS_P2;PMS_P1;PMS_P2;Temp;Humidity;BMP_temperature;BMP_pressure;BME280_temperature;BME280_humidity;BME280_pressure;Samples;Min_cycle;Max_cycle;Signal;HPM_P1;HPM_P2
2022/06/03 00:00:59;;;;;;;3.05;1.33;;;;;;;12.33;100.00;100821.63;5090530;28;20090;-69
2022/06/03 00:03:49;;;;;;;3.63;1.42;;;;;;;12.39;100.00;100832.69;5077778;28;20077;-69
2022/06/03 00:06:52;;;;;;;3.63;1.80;;;;;;;12.36;100.00;100830.22;5072114;28;20036;-69
2022/06/03 00:09:18;;;;;;;2.63;1.60;;;;;;;12.36;100.00;100837.28;5085583;28;20043;-69
2022/06/03 00:11:52;;;;;;;2.92;1.60;;;;;;;12.33;100.00;100832.16;5080675;28;20475;-69
2022/06/03 00:14:17;;;;;;;;;;;;;;;12.31;100.00;100834.84;5087972;28;20113;-69
2022/06/03 00:17:11;;;;;;;3.63;1.88;;;;;;;12.32;100.00;100831.31;5091990;28;19965;-70
2022/06/03 00:19:45;;;;;;;2.00;1.35;;;;;;;12.31;100.00;100824.31;5083243;28;20047;-69
2022/06/03 00:22:31;;;;;;;4.60;1.95;;;;;;;12.17;100.00;100801.28;5089229;28;20504;-69
2022/06/03 00:25:14;;;;;;;3.65;1.95;;;;;;;12.33;100.00;100829.53;5092970;28;20020;-69
2022/06/03 00:27:39;;;;;;;2.83;1.80;;;;;;;12.34;100.00;100824.16;5090122;28;20379;-69
2022/06/03 00:30:16;;;;;;;4.45;1.67;;;;;;;12.31;100.00;100826.94;5092867;28;20032;-69
2022/06/03 00:33:08;;;;;;;3.53;2.20;;;;;;;12.22;100.00;100817.75;5092974;28;20036;-70
2022/06/03 00:35:41;;;;;;;3.85;1.70;;;;;;;12.24;100.00;100823.78;5092334;28;20054;-70
2022/06/03 00:38:25;;;;;;;3.60;2.00;;;;;;;12.21;100.00;100820.44;5084389;28;20049;-70
2022/06/03 00:41:03;;;;;;;2.88;1.73;;;;;;;12.11;100.00;100812.16;5085322;28;20448;-70
2022/06/03 00:43:51;;;;;;;3.45;1.63;;;;;;;12.12;100.00;100813.00;5092929;28;20028;-70
2022/06/03 00:46:40;;;;;;;3.95;1.83;;;;;;;12.10;100.00;100815.69;5088546;28;20016;-70
2022/06/03 00:49:24;;;;;;;3.33;1.95;;;;;;;12.08;100.00;100814.94;5092089;28;20474;-70
2022/06/03 00:52:08;;;;;;;2.80;1.75;;;;;;;12.05;100.00;100814.22;5091656;28;20053;-70
2022/06/03 00:54:42;;;;;;;3.47;1.90;;;;;;;12.03;100.00;100811.66;5090847;28;20024;-70
2022/06/03 00:57:20;;;;;;;2.63;1.70;;;;;;;11.88;100.00;100794.00;5080847;28;20032;-70
2022/06/03 01:00:03;;;;;;;2.80;1.95;;;;;;;12.01;100.00;100820.56;5087222;28;20066;-71
2022/06/03 01:02:50;;;;;;;3.58;2.10;;;;;;;11.99;100.00;100807.50;5092520;28;20028;-70
2022/06/03 01:05:18;;;;;;;4.05;1.88;;;;;;;11.97;100.00;100809.34;5075278;28;20028;-70
2022/06/03 01:07:52;;;;;;;4.72;2.28;;;;;;;11.97;100.00;100803.22;5084427;28;20028;-70
2022/06/03 01:10:23;;;;;;;3.58;2.33;;;;;;;11.93;100.00;100799.88;5081529;28;20110;-70
2022/06/03 01:13:26;;;;;;;3.97;2.55;;;;;;;11.91;100.00;100809.66;5089882;28;20138;-70
2022/06/03 01:16:00;;;;;;;3.00;2.05;;;;;;;11.79;100.00;100783.94;5082292;28;20085;-70
2022/06/03 01:18:54;;;;;;;3.67;2.30;;;;;;;11.75;100.00;100777.09;5089127;28;20024;-70
2022/06/03 01:21:30;;;;;;;3.25;2.03;;;;;;;11.83;100.00;100798.63;5084319;28;20505;-70
2022/06/03 01:24:08;;;;;;;5.25;2.75;;;;;;;11.81;100.00;100800.50;5087134;28;20558;-70
2022/06/03 01:26:58;;;;;;;4.32;2.50;;;;;;;11.76;100.00;100799.88;5089929;28;20036;-70
2022/06/03 01:29:26;;;;;;;3.33;2.25;;;;;;;11.73;100.00;100800.84;5077162;28;20025;-70
2022/06/03 01:31:54;;;;;;;3.72;2.20;;;;;;;11.70;100.00;100789.59;5088032;28;20081;-70
2022/06/03 01:34:48;;;;;;;5.63;3.08;;;;;;;11.65;100.00;100784.56;5091175;28;20028;-70
2022/06/03 01:37:15;;;;;;;4.00;2.63;;;;;;;11.60;100.00;100783.91;5088953;28;20028;-70
2022/06/03 01:40:25;;;;;;;3.50;1.90;;;;;;;11.58;100.00;100785.78;5091534;28;20024;-70
2022/06/03 01:43:06;;;;;;;3.30;2.35;;;;;;;11.53;100.00;100776.38;5068676;28;20074;-70
2022/06/03 01:45:39;;;;;;;5.18;2.38;;;;;;;11.52;100.00;100782.59;5086789;28;20057;-70
2022/06/03 01:48:16;;;;;;;3.95;2.30;;;;;;;11.52;100.00;100779.97;5078630;28;20483;-70
2022/06/03 01:50:54;;;;;;;3.55;2.08;;;;;;;11.52;100.00;100774.69;5067262;28;20087;-70
2022/06/03 01:53:22;;;;;;;4.40;2.63;;;;;;;11.52;100.00;100777.34;5077502;28;20043;-69
2022/06/03 01:55:59;;;;;;;5.55;3.75;;;;;;;11.50;100.00;100777.38;5040725;28;20032;-70
2022/06/03 01:58:48;;;;;;;4.22;2.60;;;;;;;11.45;100.00;100770.66;5035216;28;20127;-70
2022/06/03 02:01:35;;;;;;;4.53;2.80;;;;;;;11.44;100.00;100767.16;5044284;28;20028;-70
2022/06/03 02:04:00;;;;;;;4.32;2.30;;;;;;;11.41;100.00;100771.72;5040837;28;20058;-70
2022/06/03 02:07:00;;;;;;;7.78;2.85;;;;;;;11.39;100.00;100760.44;5043979;28;20028;-70
2022/06/03 02:09:31;;;;;;;4.57;2.75;;;;;;;11.35;100.00;100761.50;5059343;28;20097;-70
2022/06/03 02:12:41;;;;;;;4.28;2.60;;;;;;;11.31;100.00;100752.03;5056606;28;20834;-70
2022/06/03 02:15:33;;;;;;;4.32;2.80;;;;;;;11.27;100.00;100743.44;5038136;28;20024;-70
2022/06/03 02:18:17;;;;;;;4.25;3.00;;;;;;;11.33;100.00;100763.31;5046782;28;20029;-70
2022/06/03 02:21:05;;;;;;;4.70;3.07;;;;;;;11.30;100.00;100761.69;5046578;28;20143;-70
2022/06/03 02:23:42;;;;;;;4.30;2.80;;;;;;;11.28;100.00;100753.91;5046339;28;20016;-70
2022/06/03 02:26:23;;;;;;;4.10;2.45;;;;;;;11.25;100.00;100761.91;5062054;28;20318;-70
2022/06/03 02:32:02;;;;;;;3.88;2.72;;;;;;;11.25;100.00;100756.66;5058007;28;20044;-70
2022/06/03 02:34:37;;;;;;;4.10;2.70;;;;;;;11.23;100.00;100758.50;5096526;28;20035;-70
2022/06/03 02:37:21;;;;;;;3.55;2.60;;;;;;;11.22;100.00;100756.78;5091517;28;20036;-70
2022/06/03 02:40:05;;;;;;;5.28;3.20;;;;;;;11.20;100.00;100748.13;5087198;28;20028;-70
2022/06/03 02:42:53;;;;;;;4.93;2.80;;;;;;;11.17;100.00;100743.03;5091534;28;20092;-70
2022/06/03 02:45:48;;;;;;;5.25;3.42;;;;;;;11.18;100.00;100746.50;5093443;28;20380;-70
2022/06/03 02:48:48;;;;;;;5.32;3.08;;;;;;;11.17;100.00;100731.63;5084437;28;20069;-70
2022/06/03 02:51:33;;;;;;;3.75;2.65;;;;;;;11.17;100.00;100731.63;5093304;28;20372;-70
2022/06/03 02:54:19;;;;;;;5.03;3.20;;;;;;;11.13;100.00;100735.34;5090622;28;20024;-70
2022/06/03 02:56:47;;;;;;;5.50;3.47;;;;;;;11.12;100.00;100739.72;5088766;28;20039;-70
2022/06/03 02:59:37;;;;;;;5.63;3.45;;;;;;;11.10;100.00;100740.75;5079977;28;20032;-70
2022/06/03 03:02:24;;;;;;;5.32;3.40;;;;;;;11.02;100.00;100727.94;5081492;28;20531;-70
2022/06/03 03:05:07;;;;;;;5.85;3.33;;;;;;;11.04;100.00;100730.50;5085287;28;20435;-70
2022/06/03 03:07:49;;;;;;;12.07;3.80;;;;;;;11.02;100.00;100729.72;5087289;28;20036;-70
2022/06/03 03:10:28;;;;;;;5.13;2.92;;;;;;;10.93;100.00;100714.38;5083358;28;20024;-70
2022/06/03 03:13:20;;;;;;;4.60;3.00;;;;;;;10.99;100.00;100727.22;5092075;28;20039;-70
2022/06/03 03:15:52;;;;;;;7.57;3.67;;;;;;;10.97;100.00;100729.94;5095085;28;20081;-70
2022/06/03 03:18:26;;;;;;;4.97;3.63;;;;;;;10.92;100.00;100724.03;5081399;28;20047;-70
2022/06/03 03:21:04;;;;;;;;;;;;;;;10.92;100.00;100724.03;5091688;28;20041;-70
2022/06/03 03:23:49;;;;;;;6.60;3.03;;;;;;;10.89;100.00;100716.28;5092595;28;19908;-70
2022/06/03 03:26:28;;;;;;;6.13;3.70;;;;;;;10.62;100.00;100673.75;5093145;28;20032;-70
2022/06/03 03:29:22;;;;;;;4.43;3.35;;;;;;;10.87;100.00;100712.91;5082515;28;20028;-70
2022/06/03 03:32:24;;;;;;;4.60;2.83;;;;;;;10.85;100.00;100713.91;5094625;28;20031;-70
2022/06/03 03:35:01;;;;;;;4.72;3.42;;;;;;;10.82;100.00;100720.13;5094664;28;20077;-70
2022/06/03 03:37:44;;;;;;;5.93;3.15;;;;;;;10.79;100.00;100715.00;5078219;28;20385;-70
2022/06/03 03:40:19;;;;;;;4.05;3.08;;;;;;;10.78;100.00;100719.41;5094761;28;20032;-70
2022/06/03 03:42:44;;;;;;;;;;;;;;;10.77;100.00;100732.66;5092209;28;20044;-70
2022/06/03 03:45:09;;;;;;;4.50;3.03;;;;;;;10.76;100.00;100731.78;5087390;28;20281;-70
2022/06/03 03:47:58;;;;;;;5.63;3.60;;;;;;;10.74;100.00;100717.00;5090415;28;20768;-70
2022/06/03 03:50:42;;;;;;;4.22;3.33;;;;;;;10.75;100.00;100726.59;5094439;28;20432;-70
2022/06/03 03:53:29;;;;;;;4.97;3.80;;;;;;;10.75;100.00;100716.06;5092152;28;20063;-70
2022/06/03 03:56:30;;;;;;;8.65;4.00;;;;;;;10.74;100.00;100703.88;5089866;28;20052;-70
2022/06/03 03:59:33;;;;;;;6.80;3.47;;;;;;;10.75;100.00;100710.81;5090457;28;20025;-70
2022/06/03 04:02:16;;;;;;;4.85;3.88;;;;;;;10.78;100.00;100703.63;5093014;28;20470;-69
2022/06/03 04:05:39;;;;;;;5.22;3.28;;;;;;;10.80;100.00;100708.84;5082253;28;20043;-69
2022/06/03 04:08:10;;;;;;;5.93;3.03;;;;;;;10.83;100.00;100713.09;5051108;28;20124;-69
2022/06/03 04:11:01;;;;;;;5.35;3.40;;;;;;;10.86;100.00;100708.56;5052065;28;20048;-69
2022/06/03 04:13:39;;;;;;;4.65;3.65;;;;;;;10.78;100.00;100687.03;5079984;28;20032;-70
2022/06/03 04:16:42;;;;;;;11.07;3.88;;;;;;;10.81;100.00;100676.38;5093487;28;20032;-69
2022/06/03 04:19:32;;;;;;;4.57;3.25;;;;;;;10.98;100.00;100704.50;5083416;28;20036;-69
2022/06/03 04:22:21;;;;;;;4.85;3.35;;;;;;;11.00;100.00;100703.50;5092883;28;20028;-69
2022/06/03 04:25:05;;;;;;;5.43;3.47;;;;;;;11.04;100.00;100710.34;5089280;28;20040;-69
2022/06/03 04:27:45;;;;;;;5.60;4.15;;;;;;;11.08;100.00;100706.66;5085951;28;20449;-69
2022/06/03 04:30:41;;;;;;;6.28;4.13;;;;;;;11.12;100.00;100702.91;5092381;28;20032;-69
2022/06/03 04:33:28;;;;;;;6.03;2.95;;;;;;;11.18;100.00;100701.78;5085089;28;20032;-69
2022/06/03 04:36:31;;;;;;;6.72;3.88;;;;;;;11.23;100.00;100705.03;5077019;28;20036;-69
2022/06/03 04:39:30;;;;;;;6.97;3.40;;;;;;;11.24;100.00;100702.34;5085533;28;20045;-69
2022/06/03 04:42:26;;;;;;;3.80;2.78;;;;;;;11.31;100.00;100712.56;5083350;28;20024;-69
2022/06/03 04:45:20;;;;;;;5.57;3.10;;;;;;;11.34;100.00;100712.41;5086692;28;20028;-70
2022/06/03 04:48:10;;;;;;;3.90;3.35;;;;;;;11.38;100.00;100713.97;5088111;28;20084;-69
2022/06/03 04:51:11;;;;;;;7.38;3.47;;;;;;;11.43;100.00;100706.69;5093007;28;20024;-69
2022/06/03 04:54:14;;;;;;;4.60;2.88;;;;;;;11.47;100.00;100703.00;5093461;28;20051;-69
2022/06/03 04:57:07;;;;;;;8.80;3.53;;;;;;;11.52;100.00;100703.66;5092819;28;20028;-70
2022/06/03 04:59:48;;;;;;;4.30;3.20;;;;;;;11.58;100.00;100711.22;5081030;28;20054;-69
2022/06/03 05:02:35;;;;;;;7.65;3.22;;;;;;;11.63;100.00;100704.81;5079403;28;20028;-69
2022/06/03 05:05:30;;;;;;;5.43;3.55;;;;;;;11.70;100.00;100710.59;5092212;28;20024;-69
2022/06/03 05:08:14;;;;;;;5.13;3.13;;;;;;;11.76;100.00;100705.09;5076675;28;20139;-69
2022/06/03 05:11:07;;;;;;;9.68;3.45;;;;;;;11.77;100.00;100696.25;5075666;28;20032;-69
2022/06/03 05:14:17;;;;;;;5.05;3.38;;;;;;;11.89;100.00;100694.78;5075951;28;20425;-69
2022/06/03 05:16:52;;;;;;;4.18;2.92;;;;;;;11.93;100.00;100701.63;5054110;28;20033;-69
2022/06/03 05:19:31;;;;;;;5.38;3.17;;;;;;;11.85;100.00;100682.72;5071915;28;20094;-69
2022/06/03 05:22:32;;;;;;;4.78;3.22;;;;;;;12.02;100.00;100704.63;5076244;28;20024;-69
2022/06/03 05:25:13;;;;;;;6.75;3.33;;;;;;;12.05;100.00;100701.84;5072845;28;20094;-69
2022/06/03 05:27:44;;;;;;;5.90;3.08;;;;;;;12.09;100.00;100692.84;5073800;28;20052;-69
2022/06/03 05:30:30;;;;;;;5.00;3.38;;;;;;;12.19;100.00;100699.34;5075863;28;20040;-69
2022/06/03 05:33:34;;;;;;;3.83;2.70;;;;;;;12.27;100.00;100697.13;5074481;28;20032;-69
2022/06/03 05:36:45;;;;;;;7.95;3.70;;;;;;;12.42;100.00;100697.28;5076654;28;20494;-69
2022/06/03 05:39:41;;;;;;;6.10;3.28;;;;;;;12.58;100.00;100684.97;5083959;28;20100;-71
2022/06/03 05:42:24;;;;;;;6.60;3.28;;;;;;;12.68;100.00;100687.03;5092573;28;20024;-70
2022/06/03 05:45:22;;;;;;;4.57;2.70;;;;;;;12.79;100.00;100679.41;5090194;28;20398;-70
2022/06/03 05:48:09;;;;;;;4.00;2.72;;;;;;;12.91;100.00;100672.59;5100770;28;20028;-70
2022/06/03 05:50:55;;;;;;;7.68;3.30;;;;;;;13.01;100.00;100681.69;5087665;28;20037;-70
2022/06/03 05:53:38;;;;;;;3.90;2.80;;;;;;;12.93;100.00;100649.63;5091002;28;20024;-70
2022/06/03 05:56:22;;;;;;;4.28;2.95;;;;;;;13.23;100.00;100679.59;5081146;28;20455;-70
2022/06/03 05:58:56;;;;;;;6.60;3.10;;;;;;;13.32;100.00;100686.13;5071815;28;20127;-70
2022/06/03 06:01:58;;;;;;;5.50;3.00;;;;;;;13.40;100.00;100690.97;5074646;28;20040;-70
2022/06/03 06:04:45;;;;;;;10.65;2.95;;;;;;;13.50;100.00;100693.00;5082190;28;20975;-70
2022/06/03 06:07:24;;;;;;;5.35;2.60;;;;;;;13.33;100.00;100658.81;5078797;28;20131;-70
2022/06/03 06:10:17;;;;;;;4.57;2.88;;;;;;;13.46;100.00;100658.94;5066733;28;20046;-70
2022/06/03 06:13:07;;;;;;;5.30;2.60;;;;;;;13.77;100.00;100698.47;5072322;28;20116;-70
2022/06/03 06:15:40;;;;;;;4.72;2.65;;;;;;;13.91;100.00;100693.25;5083642;28;20036;-70
2022/06/03 06:18:20;;;;;;;4.00;2.50;;;;;;;14.02;100.00;100687.31;5078234;28;20090;-70
2022/06/03 06:21:04;;;;;;;3.70;1.80;;;;;;;14.13;100.00;100688.34;5072125;28;20036;-70
2022/06/03 06:23:39;;;;;;;4.95;2.85;;;;;;;14.22;100.00;100693.13;5064708;28;20028;-70
2022/06/03 06:26:25;;;;;;;7.63;3.13;;;;;;;14.25;100.00;100685.00;5070589;28;20024;-70
2022/06/03 06:29:02;;;;;;;5.07;2.65;;;;;;;14.37;100.00;100696.63;5067073;28;20055;-70
2022/06/03 06:31:39;;;;;;;4.65;2.85;;;;;;;14.44;100.00;100697.97;5069816;28;20044;-70
2022/06/03 06:34:13;;;;;;;4.28;2.58;;;;;;;14.54;100.00;100700.88;5056129;28;20032;-70
2022/06/03 06:36:47;;;;;;;;;;;;;;;14.56;100.00;100697.22;5072383;28;20070;-70
2022/06/03 06:39:51;;;;;;;4.57;3.08;;;;;;;14.67;100.00;100688.59;5078840;28;19923;-68
2022/06/03 06:42:40;;;;;;;4.25;2.00;;;;;;;14.77;100.00;100695.00;5060913;28;20032;-69
2022/06/03 06:45:21;;;;;;;3.63;1.92;;;;;;;14.88;100.00;100697.84;5058805;28;20127;-70
2022/06/03 06:47:53;;;;;;;5.40;2.55;;;;;;;14.97;100.00;100697.25;5036469;28;20035;-70
2022/06/03 06:50:21;;;;;;;3.90;2.47;;;;;;;15.06;100.00;100696.69;5044316;28;20834;-70
2022/06/03 06:53:01;;;;;;;3.53;2.08;;;;;;;15.11;100.00;100694.56;5039817;28;20131;-70
2022/06/03 06:56:02;;;;;;;3.75;2.38;;;;;;;15.27;100.00;100689.16;5042588;28;20067;-70
2022/06/03 06:58:42;;;;;;;4.57;2.22;;;;;;;15.35;100.00;100693.00;5027969;28;20071;-69
2022/06/03 07:01:11;;;;;;;7.72;2.58;;;;;;;15.49;100.00;100688.63;5043949;28;20058;-70
2022/06/03 07:03:59;;;;;;;3.05;2.13;;;;;;;15.65;100.00;100691.97;5042767;28;20066;-70
2022/06/03 07:06:41;;;;;;;3.88;2.10;;;;;;;15.72;100.00;100687.94;5043053;28;20028;-70
2022/06/03 07:09:09;;;;;;;2.78;1.60;;;;;;;15.75;100.00;100691.25;5041904;28;20028;-70
2022/06/03 07:11:48;;;;;;;4.25;1.60;;;;;;;15.84;100.00;100690.66;5041190;28;20895;-70
2022/06/03 07:14:35;;;;;;;3.08;1.77;;;;;;;15.86;100.00;100671.97;5045338;28;20028;-70
2022/06/03 07:20:31;;;;;;;3.78;1.55;;;;;;;16.02;100.00;100656.72;5044777;28;20034;-71
2022/06/03 07:23:06;;;;;;;2.60;1.60;;;;;;;16.22;100.00;100689.84;5047452;28;20092;-70
2022/06/03 07:25:45;;;;;;;2.63;1.50;;;;;;;16.29;100.00;100691.94;5038844;28;20059;-69
2022/06/03 07:28:38;;;;;;;8.35;1.58;;;;;;;16.33;100.00;100660.75;5033170;28;20029;-70
2022/06/03 07:31:40;;;;;;;5.18;1.15;;;;;;;16.60;100.00;100673.91;5036475;28;20147;-70
2022/06/03 07:34:37;;;;;;;2.80;1.80;;;;;;;16.75;100.00;100656.94;5044925;28;20241;-70
2022/06/03 07:37:15;;;;;;;3.53;1.58;;;;;;;16.90;100.00;100662.94;5043275;28;20035;-70
2022/06/03 07:39:58;;;;;;;3.17;1.70;;;;;;;17.01;100.00;100677.13;5046232;28;20024;-70
2022/06/03 07:42:41;;;;;;;3.35;1.80;;;;;;;17.02;100.00;100664.72;5053132;28;20037;-70
2022/06/03 07:45:43;;;;;;;4.10;1.42;;;;;;;17.15;100.00;100674.31;5048083;28;20024;-70
2022/06/03 07:48:18;;;;;;;2.92;1.50;;;;;;;17.14;100.00;100648.72;4985022;28;20053;-70
2022/06/03 07:51:09;;;;;;;2.22;1.20;;;;;;;17.32;100.00;100662.47;5033393;28;20041;-70
2022/06/03 07:53:53;;;;;;;3.70;1.60;;;;;;;17.29;100.00;100642.28;5043541;28;20036;-70
2022/06/03 07:56:24;;;;;;;2.90;1.55;;;;;;;17.37;100.00;100639.91;5046698;28;20112;-70
2022/06/03 07:59:00;;;;;;;4.57;1.85;;;;;;;17.51;100.00;100646.84;5042352;28;20031;-70
2022/06/03 08:01:31;;;;;;;1.83;1.00;;;;;;;17.59;100.00;100644.50;5036680;28;20032;-70
2022/06/03 08:03:56;;;;;;;2.95;1.70;;;;;;;17.70;100.00;100643.69;5047107;28;20271;-70
2022/06/03 08:12:06;;;;;;;3.50;1.58;;;;;;;17.79;100.00;100619.06;5045859;28;20035;-70
2022/06/03 08:14:31;;;;;;;4.63;1.80;;;;;;;17.53;100.00;100567.88;5043831;28;20147;-70
2022/06/03 08:16:57;;;;;;;2.88;1.48;;;;;;;17.91;100.00;100623.44;5058845;28;20034;-70
2022/06/03 08:19:27;;;;;;;5.32;2.05;;;;;;;18.07;100.00;100633.75;5048675;28;20027;-70
2022/06/03 08:22:00;;;;;;;6.20;1.60;;;;;;;18.11;100.00;100620.09;5037760;28;20020;-71
2022/06/03 08:24:30;;;;;;;6.60;1.80;;;;;;;18.12;100.00;100621.78;5029507;28;20044;-70
2022/06/03 08:27:09;;;;;;;3.47;1.73;;;;;;;18.20;100.00;100614.06;5045747;28;20818;-71
2022/06/03 08:29:42;;;;;;;2.88;1.60;;;;;;;18.33;100.00;100620.09;5047166;28;20915;-68
2022/06/03 08:32:11;;;;;;;4.18;1.73;;;;;;;18.43;100.00;100619.38;5047167;28;20307;-69
2022/06/03 08:34:44;;;;;;;4.05;1.75;;;;;;;18.43;100.00;100616.69;5048185;28;20069;-70
2022/06/03 08:37:14;;;;;;;3.03;1.42;;;;;;;18.27;100.00;100571.84;5055265;28;20032;-70
2022/06/03 08:39:39;;;;;;;3.13;1.42;;;;;;;18.64;100.00;100634.53;5056418;28;20032;-70
2022/06/03 08:42:30;;;;;;;5.45;1.52;;;;;;;18.64;100.00;100626.53;5073573;28;20078;-70
2022/06/03 08:45:01;;;;;;;2.60;1.33;;;;;;;18.74;100.00;100632.81;5074357;28;20031;-70
2022/06/03 08:47:41;;;;;;;3.00;1.52;;;;;;;18.98;100.00;100632.66;5069833;28;20032;-70
2022/06/03 08:50:14;;;;;;;4.32;1.75;;;;;;;19.08;100.00;100638.06;5041249;28;20031;-70
2022/06/03 08:52:55;;;;;;;3.70;1.50;;;;;;;19.15;100.00;100625.94;5059033;28;20031;-70
2022/06/03 08:55:27;;;;;;;9.20;2.30;;;;;;;19.29;100.00;100642.50;5060392;28;20386;-69
2022/06/03 08:57:57;;;;;;;2.53;1.42;;;;;;;19.37;100.00;100642.69;5067027;28;20039;-69
2022/06/03 09:00:40;;;;;;;2.40;1.30;;;;;;;19.46;100.00;100640.28;5081647;28;20031;-70
2022/06/03 09:03:12;;;;;;;7.22;2.08;;;;;;;19.46;97.18;100637.63;5047323;28;20032;-68
2022/06/03 09:05:52;;;;;;;6.68;1.80;;;;;;;19.42;95.82;100636.16;5066403;28;20036;-70
2022/06/03 09:08:34;;;;;;;10.80;1.52;;;;;;;19.54;93.60;100635.13;5065000;28;20075;-70
2022/06/03 09:11:20;;;;;;;3.72;1.70;;;;;;;19.74;97.14;100644.97;5082453;28;20804;-70
2022/06/03 09:13:48;;;;;;;4.63;1.67;;;;;;;19.87;90.64;100643.00;5068320;28;20024;-71
2022/06/03 09:16:16;;;;;;;9.02;1.55;;;;;;;19.88;90.75;100634.00;5063869;28;20043;-70
2022/06/03 09:18:44;;;;;;;3.90;1.52;;;;;;;20.01;91.21;100647.97;5061063;28;20028;-71
2022/06/03 09:21:15;;;;;;;3.95;1.65;;;;;;;20.04;91.96;100636.22;5078976;27;20039;-70
2022/06/03 09:23:46;;;;;;;4.65;1.85;;;;;;;20.02;88.93;100628.31;5071863;28;20029;-70
2022/06/03 09:26:25;;;;;;;5.22;1.75;;;;;;;20.15;89.67;100628.97;5073742;28;20036;-70
2022/06/03 09:28:52;;;;;;;2.38;1.30;;;;;;;20.10;88.68;100611.66;5071446;28;20139;-70
2022/06/03 09:31:19;;;;;;;2.80;1.10;;;;;;;20.32;89.94;100638.19;5071970;28;20032;-71
2022/06/03 09:33:45;;;;;;;5.05;1.30;;;;;;;20.45;85.81;100630.00;5076957;28;20021;-70
2022/06/03 09:36:14;;;;;;;2.83;1.10;;;;;;;20.45;84.54;100617.47;5069979;28;20055;-70
2022/06/03 09:38:44;;;;;;;4.10;1.50;;;;;;;20.52;86.95;100607.94;5093182;28;20429;-69
2022/06/03 09:41:10;;;;;;;3.60;1.23;;;;;;;20.69;86.45;100622.47;5079393;28;20035;-71
2022/06/03 09:43:38;;;;;;;4.28;1.25;;;;;;;20.82;87.95;100633.75;5066617;28;20059;-70
2022/06/03 09:46:05;;;;;;;2.05;0.95;;;;;;;20.92;86.09;100627.44;5043190;28;20028;-71
2022/06/03 09:48:33;;;;;;;5.43;1.25;;;;;;;20.99;83.85;100606.38;5045025;28;20028;-71
2022/06/03 09:51:24;;;;;;;1.92;0.88;;;;;;;21.12;85.72;100628.38;5048842;28;20042;-71
2022/06/03 09:53:49;;;;;;;3.70;1.33;;;;;;;21.06;82.30;100610.19;5042235;28;20073;-71
2022/06/03 09:56:33;;;;;;;4.82;1.23;;;;;;;21.20;83.36;100601.78;5061977;28;20032;-71
2022/06/03 09:59:00;;;;;;;5.78;1.55;;;;;;;21.37;81.19;100622.47;5041917;28;20112;-68
2022/06/03 10:01:27;;;;;;;2.60;1.00;;;;;;;21.43;80.94;100615.72;5047070;28;20040;-69
2022/06/03 10:03:56;;;;;;;3.60;1.50;;;;;;;21.44;80.50;100587.16;5046609;28;20062;-70
2022/06/03 10:14:34;;;;;;;14.57;1.85;;;;;;;21.95;76.23;100617.13;5040741;28;21032;-71
2022/06/03 10:16:59;;;;;;;2.33;1.15;;;;;;;21.88;74.15;100605.25;5044540;28;20020;-71
2022/06/03 10:19:24;;;;;;;7.95;1.50;;;;;;;21.76;75.13;100601.06;5044237;28;20867;-71
2022/06/03 10:21:52;;;;;;;5.20;1.50;;;;;;;21.71;75.80;100595.28;5033623;28;20052;-69
2022/06/03 10:24:21;;;;;;;2.90;1.30;;;;;;;21.78;73.94;100604.44;5045015;28;20031;-70
2022/06/03 10:26:49;;;;;;;3.67;1.52;;;;;;;21.83;74.69;100596.84;5042993;28;20933;-70
2022/06/03 10:29:22;;;;;;;3.75;1.30;;;;;;;21.99;74.42;100612.31;5044333;28;20028;-71
2022/06/03 10:31:57;;;;;;;8.45;1.45;;;;;;;22.03;73.88;100609.22;5043335;28;20092;-71
2022/06/03 10:34:25;;;;;;;4.28;1.15;;;;;;;22.11;74.78;100606.63;5042882;28;20922;-71
2022/06/03 10:36:53;;;;;;;4.00;1.40;;;;;;;22.20;71.40;100600.44;5045730;28;20884;-70
2022/06/03 10:39:21;;;;;;;2.95;1.35;;;;;;;22.20;71.29;100595.06;5045003;28;20894;-71
2022/06/03 10:41:50;;;;;;;2.58;1.02;;;;;;;22.18;72.76;100590.84;5044638;28;20138;-70
2022/06/03 10:44:26;;;;;;;8.45;1.27;;;;;;;22.09;73.49;100576.50;5036684;28;20113;-71
2022/06/03 10:47:02;;;;;;;3.35;1.30;;;;;;;22.11;72.25;100584.38;5030922;28;20136;-71
2022/06/03 10:49:30;;;;;;;4.78;1.10;;;;;;;21.99;72.97;100574.84;5039540;28;20090;-69
2022/06/03 11:02:55;;;;;;;5.32;1.40;;;;;;;23.15;73.72;100587.50;5051674;28;20109;-71
2022/06/03 11:05:23;;;;;;;3.67;1.70;;;;;;;23.30;69.69;100587.81;5048742;28;20138;-70
2022/06/03 11:08:05;;;;;;;4.22;1.42;;;;;;;23.60;71.54;100586.56;5047099;28;20849;-70
2022/06/03 11:10:42;;;;;;;3.08;1.55;;;;;;;23.80;69.64;100588.06;5047424;28;20808;-70
2022/06/03 11:13:09;;;;;;;4.38;1.70;;;;;;;23.75;67.08;100585.88;5047016;28;20055;-71
2022/06/03 11:15:43;;;;;;;3.72;1.40;;;;;;;23.88;71.39;100585.44;5047920;28;20031;-71
2022/06/03 11:18:17;;;;;;;3.93;1.57;;;;;;;24.09;70.75;100552.84;5019938;28;20083;-70
2022/06/03 11:20:44;;;;;;;5.05;1.45;;;;;;;24.43;68.72;100572.53;5045702;28;20871;-71
2022/06/03 11:23:11;;;;;;;2.40;1.30;;;;;;;24.52;66.78;100578.78;5047738;28;20028;-69
2022/06/03 11:25:40;;;;;;;3.20;1.48;;;;;;;24.72;70.15;100574.81;5047457;28;20028;-71
2022/06/03 11:28:12;;;;;;;3.00;1.35;;;;;;;25.08;70.28;100559.31;5062807;28;20035;-71
2022/06/03 11:30:48;;;;;;;4.25;1.50;;;;;;;25.56;67.46;100563.88;5054460;28;20900;-70
2022/06/03 11:33:14;;;;;;;4.22;1.67;;;;;;;25.37;65.13;100563.19;5048868;28;20024;-72
2022/06/03 11:36:07;;;;;;;3.03;1.33;;;;;;;25.49;65.17;100560.13;5048032;28;20597;-72
2022/06/03 11:38:44;;;;;;;6.25;1.60;;;;;;;26.09;67.68;100553.34;5055473;28;20037;-71
2022/06/03 11:41:22;;;;;;;7.25;1.55;;;;;;;27.23;68.88;100556.34;5039742;28;20032;-72
2022/06/03 11:43:56;;;;;;;3.03;1.63;;;;;;;28.10;64.86;100563.84;5047368;28;20035;-72
2022/06/03 11:46:37;;;;;;;4.30;1.65;;;;;;;27.88;60.34;100549.34;5064098;28;20039;-71
2022/06/03 11:49:06;;;;;;;3.67;1.63;;;;;;;27.57;57.77;100537.88;5046446;28;20020;-69
2022/06/03 11:51:32;;;;;;;3.28;1.70;;;;;;;27.52;58.19;100544.81;5045055;28;21100;-68
2022/06/03 11:53:58;;;;;;;7.60;2.03;;;;;;;27.26;58.68;100540.63;5045712;28;20046;-70
2022/06/03 11:56:26;;;;;;;2.85;1.70;;;;;;;27.05;57.85;100531.50;5050341;28;20454;-71
2022/06/03 11:59:05;;;;;;;3.70;1.73;;;;;;;27.28;59.18;100543.97;5047205;28;20028;-71
2022/06/03 12:01:49;;;;;;;4.90;1.67;;;;;;;27.71;60.65;100538.91;5061974;28;20912;-71
2022/06/03 12:04:40;;;;;;;3.13;1.50;;;;;;;27.91;60.63;100548.16;5036815;28;20174;-71
2022/06/03 12:07:31;;;;;;;4.20;2.20;;;;;;;27.74;59.70;100535.84;5049996;28;20039;-72
2022/06/03 12:10:24;;;;;;;7.03;1.90;;;;;;;27.57;55.64;100543.28;5040589;28;20810;-68
2022/06/03 12:13:15;;;;;;;5.00;2.25;;;;;;;27.58;54.89;100534.13;5053327;28;20169;-69
2022/06/03 12:15:53;;;;;;;5.88;2.15;;;;;;;27.81;55.90;100534.09;5051072;28;20929;-67
2022/06/03 12:19:00;;;;;;;4.57;2.20;;;;;;;27.49;53.92;100534.38;5053736;28;20042;-69
2022/06/03 12:21:30;;;;;;;10.02;2.22;;;;;;;26.33;56.24;100520.94;5045886;28;20028;-69
2022/06/03 12:23:57;;;;;;;9.77;1.85;;;;;;;25.69;56.06;100521.13;5051606;28;20016;-72
2022/06/03 12:26:26;;;;;;;6.22;2.15;;;;;;;25.73;57.00;100533.22;5058878;28;20039;-71
2022/06/03 12:28:54;;;;;;;6.10;2.30;;;;;;;25.92;58.34;100519.41;5059911;28;20264;-69
2022/06/03 12:31:22;;;;;;;3.25;1.83;;;;;;;26.30;55.80;100524.00;5051935;28;20089;-67
2022/06/03 12:34:06;;;;;;;3.50;1.58;;;;;;;26.83;58.82;100522.41;5048556;28;20043;-72
2022/06/03 12:36:53;;;;;;;5.15;2.17;;;;;;;27.13;55.48;100524.22;5038686;28;20032;-68
2022/06/03 12:39:19;;;;;;;3.38;1.67;;;;;;;27.46;55.83;100519.41;5051129;28;20036;-71
2022/06/03 12:41:44;;;;;;;3.55;1.98;;;;;;;27.54;54.44;100505.00;5047065;28;20032;-71
2022/06/03 12:44:40;;;;;;;6.80;2.30;;;;;;;27.86;53.55;100524.41;5045190;28;20912;-70
2022/06/03 12:47:17;;;;;;;6.53;2.00;;;;;;;28.08;55.24;100519.97;5043639;28;20282;-71
2022/06/03 12:49:43;;;;;;;5.55;2.30;;;;;;;28.24;54.15;100530.59;5055379;28;20078;-70